FAHS/HDS METAR and TAF weather

Enter ICAO airport designator
Station Type Date Time Source
FAHS METAR 2018/06/19 08:00 UTC NOAA

FAHS 190800Z AUTO 20001KT //// // ////// 29/04 Q1019


Station Type Date Time Source
FAHS Decoded METAR 2018/06/19 08:00 UTC NOAA

Hoedspruit, South Africa (FAHS) 24-22S 031-02E 500M
Jun 19, 2018 - 04:00 AM EDT / 2018.06.19 0800 UTC
Wind: from the SSW (200 degrees) at 1 MPH (1 KT):0
Temperature: 84 F (29 C)
Dew Point: 39 F (4 C)
Relative Humidity: 20%
Pressure (altimeter): 30.09 in. Hg (1019 hPa)
ob: FAHS 190800Z AUTO 20001KT //// // ////// 29/04 Q1019
cycle: 8

Station Type Date Time Source
FAHS TAF 2017/05/23 04:01 UTC NOAA

TAF FAHS 230300Z 2304/2315 VRB02KT CAVOK TX29/2312ZTN12/2304Z


Example: see airport list